Time,TemperatureF,DewpointF,PressureIn,WindDirection,WindDirectionDegrees,WindSpeedMPH,WindSpeedGustMPH,Humidity,HourlyPrecipIn,Conditions,Clouds,dailyrainin,SoftwareType,DateUTC
2013-07-07 00:01:00,79.3,75.1,29.83,SSE,168,0.0,0.0,87,0.00,,---,0.00,VWS V14.01,2013-07-07 05:01:00,
2013-07-07 00:06:00,79.2,75.0,29.83,SSE,167,2.0,2.0,87,0.00,,---,0.00,VWS V14.01,2013-07-07 05:06:00,
2013-07-07 00:11:00,79.2,75.3,29.83,SSE,167,0.0,0.0,88,0.00,,---,0.00,VWS V14.01,2013-07-07 05:11:00,
2013-07-07 00:16:00,79.1,74.9,29.83,SSE,167,0.0,0.0,87,0.00,,---,0.00,VWS V14.01,2013-07-07 05:16:00,
2013-07-07 00:21:00,79.0,74.8,29.83,SSE,167,0.0,0.0,87,0.00,,---,0.00,VWS V14.01,2013-07-07 05:21:00,
2013-07-07 00:26:00,78.8,74.6,29.83,SSE,167,0.0,0.0,87,0.00,,---,0.00,VWS V14.01,2013-07-07 05:26:00,
2013-07-07 00:31:00,78.6,74.4,29.83,SSE,167,0.0,0.0,87,0.00,,---,0.00,VWS V14.01,2013-07-07 05:31:00,
2013-07-07 00:36:00,78.6,74.8,29.83,SSE,167,0.0,0.0,88,0.00,,---,0.00,VWS V14.01,2013-07-07 05:36:00,
2013-07-07 00:41:00,78.5,74.7,29.83,SSE,167,0.0,0.0,88,0.00,,---,0.00,VWS V14.01,2013-07-07 05:41:00,
2013-07-07 00:46:00,78.5,75.0,29.83,SSE,167,0.0,0.0,89,0.00,,---,0.00,VWS V14.01,2013-07-07 05:46:00,
2013-07-07 00:51:00,78.5,75.0,29.83,SSE,167,0.0,0.0,89,0.00,,---,0.00,VWS V14.01,2013-07-07 05:51:00,
2013-07-07 00:55:00,78.6,75.1,29.83,SSE,167,0.0,0.0,89,0.00,,---,0.00,VWS V14.01,2013-07-07 05:55:00,
2013-07-07 01:00:00,78.6,75.1,29.83,SSE,167,0.0,0.0,89,0.00,,---,0.00,VWS V14.01,2013-07-07 06:00:00,
2013-07-07 01:05:00,78.6,75.1,29.83,SSE,167,0.0,0.0,89,0.00,,---,0.00,VWS V14.01,2013-07-07 06:05:00,
2013-07-07 01:10:00,78.7,75.2,29.83,SSE,167,0.0,0.0,89,0.00,,---,0.00,VWS V14.01,2013-07-07 06:10:00,
2013-07-07 01:15:00,78.7,75.2,29.83,SSE,167,0.0,0.0,89,0.00,,---,0.00,VWS V14.01,2013-07-07 06:15:00,
2013-07-07 01:20:00,78.7,75.2,29.83,SSE,167,0.0,0.0,89,0.00,,---,0.00,VWS V14.01,2013-07-07 06:20:00,
2013-07-07 01:25:00,78.7,75.5,29.83,SSE,167,0.0,0.0,90,0.00,,---,0.00,VWS V14.01,2013-07-07 06:25:00,
2013-07-07 01:30:00,78.7,75.5,29.84,SSE,167,0.0,0.0,90,0.00,,---,0.00,VWS V14.01,2013-07-07 06:30:00,
2013-07-07 01:35:00,78.7,75.5,29.84,SSE,167,0.0,0.0,90,0.00,,---,0.00,VWS V14.01,2013-07-07 06:35:00,
2013-07-07 01:40:00,78.7,75.5,29.84,SSE,167,0.0,0.0,90,0.00,,---,0.00,VWS V14.01,2013-07-07 06:40:00,
2013-07-07 01:45:00,78.6,75.4,29.84,SSE,166,0.0,0.0,90,0.00,,---,0.00,VWS V14.01,2013-07-07 06:45:00,
2013-07-07 01:50:00,78.5,75.3,29.84,SSE,166,0.0,0.0,90,0.00,,---,0.00,VWS V14.01,2013-07-07 06:50:00,
2013-07-07 01:55:00,78.3,75.1,29.84,SSE,167,0.0,2.0,90,0.00,,---,0.00,VWS V14.01,2013-07-07 06:55:00,
2013-07-07 02:00:00,78.2,75.0,29.84,SSE,167,0.0,2.0,90,0.00,,---,0.00,VWS V14.01,2013-07-07 07:00:00,
2013-07-07 02:05:00,78.1,74.9,29.83,SSE,167,1.0,3.0,90,0.00,,---,0.00,VWS V14.01,2013-07-07 07:05:00,
2013-07-07 02:10:00,78.1,74.9,29.83,SSE,167,0.0,0.0,90,0.00,,---,0.00,VWS V14.01,2013-07-07 07:10:00,
2013-07-07 02:15:00,78.0,74.8,29.83,SSE,165,2.0,3.0,90,0.00,,---,0.00,VWS V14.01,2013-07-07 07:15:00,
2013-07-07 02:20:00,78.0,75.2,29.83,SSE,166,0.0,3.0,91,0.00,,---,0.00,VWS V14.01,2013-07-07 07:20:00,
2013-07-07 02:25:00,77.9,75.1,29.83,SSE,165,4.0,4.0,91,0.00,,---,0.00,VWS V14.01,2013-07-07 07:25:00,
2013-07-07 02:30:00,77.8,75.0,29.83,SSE,167,3.0,5.0,91,0.00,,---,0.00,VWS V14.01,2013-07-07 07:30:00,
2013-07-07 02:35:00,77.6,74.8,29.83,South,169,3.0,5.0,91,0.00,,---,0.00,VWS V14.01,2013-07-07 07:35:00,
2013-07-07 02:40:00,77.6,74.8,29.83,South,169,2.0,3.0,91,0.00,,---,0.00,VWS V14.01,2013-07-07 07:40:00,
2013-07-07 02:45:00,77.6,74.8,29.83,SSE,168,0.0,2.0,91,0.00,,---,0.00,VWS V14.01,2013-07-07 07:45:00,
2013-07-07 02:50:00,77.5,74.7,29.83,South,169,0.0,0.0,91,0.00,,---,0.00,VWS V14.01,2013-07-07 07:50:00,
2013-07-07 02:55:00,77.3,74.5,29.83,South,169,0.0,0.0,91,0.00,,---,0.00,VWS V14.01,2013-07-07 07:55:00,
2013-07-07 03:00:00,77.3,74.5,29.83,SSE,168,0.0,0.0,91,0.00,,---,0.00,VWS V14.01,2013-07-07 08:00:00,
2013-07-07 03:05:00,77.3,74.5,29.83,SSE,168,0.0,1.0,91,0.00,,---,0.00,VWS V14.01,2013-07-07 08:05:00,
2013-07-07 03:10:00,77.3,74.8,29.83,SSE,168,0.0,0.0,92,0.00,,---,0.00,VWS V14.01,2013-07-07 08:10:00,
2013-07-07 03:15:00,77.2,74.7,29.83,SSE,168,0.0,0.0,92,0.00,,---,0.00,VWS V14.01,2013-07-07 08:15:00,
2013-07-07 03:20:00,77.2,74.7,29.83,SSE,168,0.0,0.0,92,0.00,,---,0.00,VWS V14.01,2013-07-07 08:20:00,
2013-07-07 03:25:00,77.3,74.8,29.83,SSE,168,0.0,0.0,92,0.00,,---,0.00,VWS V14.01,2013-07-07 08:25:00,
2013-07-07 03:30:00,77.3,74.8,29.83,SSE,168,0.0,0.0,92,0.00,,---,0.00,VWS V14.01,2013-07-07 08:30:00,
2013-07-07 03:35:00,77.3,74.8,29.83,SSE,168,0.0,0.0,92,0.00,,---,0.00,VWS V14.01,2013-07-07 08:35:00,
2013-07-07 03:40:00,77.3,74.8,29.83,SSE,168,0.0,0.0,92,0.00,,---,0.00,VWS V14.01,2013-07-07 08:40:00,
2013-07-07 03:45:00,77.2,74.7,29.83,SSE,168,0.0,0.0,92,0.00,,---,0.00,VWS V14.01,2013-07-07 08:45:00,
2013-07-07 03:50:00,77.3,74.8,29.83,SSE,168,0.0,0.0,92,0.00,,---,0.00,VWS V14.01,2013-07-07 08:50:00,
2013-07-07 03:55:00,77.3,74.8,29.83,SSE,168,0.0,0.0,92,0.00,,---,0.00,VWS V14.01,2013-07-07 08:55:00,
2013-07-07 04:00:00,77.3,74.8,29.83,SSE,168,0.0,0.0,92,0.00,,---,0.00,VWS V14.01,2013-07-07 09:00:00,
2013-07-07 04:05:00,77.3,74.8,29.83,SSE,168,0.0,0.0,92,0.00,,---,0.00,VWS V14.01,2013-07-07 09:05:00,
2013-07-07 04:10:00,77.2,74.7,29.83,SSE,168,0.0,0.0,92,0.00,,---,0.00,VWS V14.01,2013-07-07 09:10:00,
2013-07-07 04:15:00,77.4,75.2,29.83,SSE,168,0.0,0.0,93,0.00,,---,0.00,VWS V14.01,2013-07-07 09:15:00,
2013-07-07 04:20:00,77.5,75.3,29.83,SSE,168,0.0,0.0,93,0.00,,---,0.00,VWS V14.01,2013-07-07 09:20:00,
2013-07-07 04:25:00,77.7,75.5,29.83,SSE,168,0.0,0.0,93,0.00,,---,0.00,VWS V14.01,2013-07-07 09:25:00,
2013-07-07 04:30:00,77.8,75.6,29.83,SSE,166,0.0,1.0,93,0.00,,---,0.00,VWS V14.01,2013-07-07 09:30:00,
2013-07-07 04:35:00,77.8,75.6,29.83,SSE,166,1.0,1.0,93,0.00,,---,0.00,VWS V14.01,2013-07-07 09:35:00,
2013-07-07 04:40:00,77.8,75.6,29.83,SSE,165,0.0,0.0,93,0.00,,---,0.00,VWS V14.01,2013-07-07 09:40:00,
2013-07-07 04:45:00,77.7,75.5,29.83,SSE,165,0.0,0.0,93,0.00,,---,0.00,VWS V14.01,2013-07-07 09:45:00,
2013-07-07 04:50:00,77.6,75.4,29.83,SSE,165,0.0,0.0,93,0.00,,---,0.00,VWS V14.01,2013-07-07 09:50:00,
2013-07-07 04:55:00,77.6,75.4,29.83,SSE,165,0.0,0.0,93,0.00,,---,0.00,VWS V14.01,2013-07-07 09:55:00,
2013-07-07 05:00:00,77.6,75.4,29.83,SSE,165,0.0,0.0,93,0.00,,---,0.00,VWS V14.01,2013-07-07 10:00:00,
2013-07-07 05:05:00,77.5,75.3,29.83,SSE,165,0.0,0.0,93,0.00,,---,0.00,VWS V14.01,2013-07-07 10:05:00,
2013-07-07 05:10:00,77.6,75.4,29.83,SSE,165,0.0,0.0,93,0.00,,---,0.00,VWS V14.01,2013-07-07 10:10:00,
2013-07-07 05:15:00,77.6,75.4,29.83,SSE,165,0.0,0.0,93,0.00,,---,0.00,VWS V14.01,2013-07-07 10:15:00,
2013-07-07 05:20:00,77.6,75.4,29.83,SSE,165,0.0,0.0,93,0.00,,---,0.00,VWS V14.01,2013-07-07 10:20:00,
2013-07-07 05:25:00,77.7,75.5,29.84,SSE,165,0.0,0.0,93,0.00,,---,0.00,VWS V14.01,2013-07-07 10:25:00,
2013-07-07 05:30:00,77.6,75.4,29.84,SSE,165,0.0,0.0,93,0.00,,---,0.00,VWS V14.01,2013-07-07 10:30:00,
2013-07-07 05:35:00,77.6,75.4,29.84,SSE,165,0.0,0.0,93,0.00,,---,0.00,VWS V14.01,2013-07-07 10:35:00,
2013-07-07 05:40:00,77.5,75.3,29.84,SSE,165,0.0,0.0,93,0.00,,---,0.00,VWS V14.01,2013-07-07 10:40:00,
2013-07-07 05:45:00,77.3,75.1,29.84,SSE,165,0.0,0.0,93,0.00,,---,0.00,VWS V14.01,2013-07-07 10:45:00,
2013-07-07 05:50:00,77.2,75.0,29.84,SSE,165,0.0,0.0,93,0.00,,---,0.00,VWS V14.01,2013-07-07 10:50:00,
2013-07-07 05:55:00,77.1,74.9,29.84,SSE,165,0.0,0.0,93,0.00,,---,0.00,VWS V14.01,2013-07-07 10:55:00,
2013-07-07 06:00:00,77.0,74.8,29.85,SSE,165,0.0,0.0,93,0.00,,---,0.00,VWS V14.01,2013-07-07 11:00:00,
2013-07-07 06:05:00,77.0,74.8,29.85,SSE,165,0.0,0.0,93,0.00,,---,0.00,VWS V14.01,2013-07-07 11:05:00,
2013-07-07 06:10:00,77.1,74.9,29.85,SSE,165,0.0,0.0,93,0.00,,---,0.00,VWS V14.01,2013-07-07 11:10:00,
2013-07-07 06:15:00,77.1,74.9,29.85,SSE,165,0.0,0.0,93,0.00,,---,0.00,VWS V14.01,2013-07-07 11:15:00,
2013-07-07 06:20:00,77.2,75.0,29.85,SSE,165,0.0,0.0,93,0.00,,---,0.00,VWS V14.01,2013-07-07 11:20:00,
2013-07-07 06:25:00,77.3,75.1,29.85,SSE,165,0.0,0.0,93,0.00,,---,0.00,VWS V14.01,2013-07-07 11:25:00,
2013-07-07 06:30:00,77.3,75.1,29.85,SSE,165,0.0,0.0,93,0.00,,---,0.00,VWS V14.01,2013-07-07 11:30:00,
2013-07-07 06:35:00,77.3,75.1,29.85,SSE,165,0.0,0.0,93,0.00,,---,0.00,VWS V14.01,2013-07-07 11:35:00,
2013-07-07 06:40:00,77.3,75.1,29.85,SSE,165,0.0,0.0,93,0.00,,---,0.00,VWS V14.01,2013-07-07 11:40:00,
2013-07-07 06:45:00,77.3,75.1,29.85,SSE,165,0.0,0.0,93,0.00,,---,0.00,VWS V14.01,2013-07-07 11:45:00,
2013-07-07 06:50:00,77.4,75.2,29.85,SSE,165,0.0,0.0,93,0.00,,---,0.00,VWS V14.01,2013-07-07 11:50:00,
2013-07-07 06:55:00,77.3,75.1,29.85,SSE,165,0.0,0.0,93,0.00,,---,0.00,VWS V14.01,2013-07-07 11:55:00,
2013-07-07 07:00:00,77.3,75.1,29.85,SSE,165,0.0,0.0,93,0.00,,---,0.00,VWS V14.01,2013-07-07 12:00:00,
2013-07-07 07:05:00,77.3,75.1,29.86,SSE,166,0.0,0.0,93,0.00,,---,0.00,VWS V14.01,2013-07-07 12:05:00,
2013-07-07 07:10:00,77.3,75.1,29.86,SSE,165,0.0,0.0,93,0.00,,---,0.00,VWS V14.01,2013-07-07 12:10:00,
2013-07-07 07:14:00,77.3,75.1,29.86,SSE,165,0.0,0.0,93,0.00,,---,0.00,VWS V14.01,2013-07-07 12:14:00,
2013-07-07 07:19:00,77.3,75.1,29.86,SSE,165,0.0,0.0,93,0.00,,---,0.00,VWS V14.01,2013-07-07 12:19:00,
2013-07-07 07:24:00,77.5,75.3,29.86,SSE,164,0.0,0.0,93,0.00,,---,0.00,VWS V14.01,2013-07-07 12:24:00,
2013-07-07 07:29:00,77.7,75.5,29.86,SSE,164,0.0,0.0,93,0.00,,---,0.00,VWS V14.01,2013-07-07 12:29:00,
2013-07-07 07:34:00,78.0,75.8,29.86,SSE,163,0.0,0.0,93,0.00,,---,0.00,VWS V14.01,2013-07-07 12:34:00,
2013-07-07 07:39:00,78.4,76.2,29.87,SSE,163,0.0,0.0,93,0.00,,---,0.00,VWS V14.01,2013-07-07 12:39:00,
2013-07-07 07:44:00,78.9,76.7,29.86,SSE,163,0.0,0.0,93,0.00,,---,0.00,VWS V14.01,2013-07-07 12:44:00,
2013-07-07 07:49:00,79.2,76.7,29.86,SSE,156,1.0,2.0,92,0.00,,---,0.00,VWS V14.01,2013-07-07 12:49:00,
2013-07-07 07:54:00,79.7,76.8,29.87,SSE,155,0.0,2.0,91,0.00,,---,0.00,VWS V14.01,2013-07-07 12:54:00,
2013-07-07 07:59:00,80.3,77.1,29.87,SSE,159,0.0,2.0,90,0.00,,---,0.00,VWS V14.01,2013-07-07 12:59:00,
2013-07-07 08:04:00,80.8,77.3,29.87,SSE,157,0.0,0.0,89,0.00,,---,0.00,VWS V14.01,2013-07-07 13:04:00,
2013-07-07 08:09:00,81.5,77.6,29.87,SSE,156,0.0,2.0,88,0.00,,---,0.00,VWS V14.01,2013-07-07 13:09:00,
2013-07-07 08:14:00,82.3,77.7,29.87,SSE,164,2.0,4.0,86,0.00,,---,0.00,VWS V14.01,2013-07-07 13:14:00,
2013-07-07 08:19:00,82.9,77.2,29.87,SSE,160,4.0,5.0,83,0.00,,---,0.00,VWS V14.01,2013-07-07 13:19:00,
2013-07-07 08:24:00,83.3,77.6,29.87,SSE,159,3.0,4.0,83,0.00,,---,0.00,VWS V14.01,2013-07-07 13:24:00,
2013-07-07 08:29:00,83.6,77.2,29.87,South,169,0.0,3.0,81,0.00,,---,0.00,VWS V14.01,2013-07-07 13:29:00,
2013-07-07 08:34:00,84.0,77.5,29.87,SE,146,0.0,0.0,81,0.00,,---,0.00,VWS V14.01,2013-07-07 13:34:00,
2013-07-07 08:39:00,84.0,76.8,29.88,ESE,123,2.0,6.0,79,0.00,,---,0.00,VWS V14.01,2013-07-07 13:39:00,
2013-07-07 08:44:00,84.1,76.9,29.88,SE,137,2.0,6.0,79,0.00,,---,0.00,VWS V14.01,2013-07-07 13:44:00,
2013-07-07 08:49:00,84.3,77.1,29.88,SSE,165,1.0,4.0,79,0.00,,---,0.00,VWS V14.01,2013-07-07 13:49:00,
2013-07-07 08:54:00,84.5,76.9,29.88,ESE,111,5.0,5.0,78,0.00,,---,0.00,VWS V14.01,2013-07-07 13:54:00,
2013-07-07 08:59:00,84.4,76.4,29.88,SE,141,4.0,5.0,77,0.00,,---,0.00,VWS V14.01,2013-07-07 13:59:00,
2013-07-07 09:04:00,84.5,76.9,29.88,SSE,168,5.0,9.0,78,0.00,,---,0.00,VWS V14.01,2013-07-07 14:04:00,
2013-07-07 09:09:00,84.5,76.5,29.88,SSE,167,0.0,5.0,77,0.00,,---,0.00,VWS V14.01,2013-07-07 14:09:00,
2013-07-07 09:14:00,84.6,76.6,29.88,SE,142,2.0,7.0,77,0.00,,---,0.00,VWS V14.01,2013-07-07 14:14:00,
2013-07-07 09:19:00,84.3,76.3,29.88,SE,137,2.0,5.0,77,0.00,,---,0.00,VWS V14.01,2013-07-07 14:19:00,
2013-07-07 09:24:00,84.7,77.1,29.88,South,184,4.0,8.0,78,0.00,,---,0.00,VWS V14.01,2013-07-07 14:24:00,
2013-07-07 09:29:00,85.0,76.6,29.89,ESE,123,4.0,6.0,76,0.00,,---,0.00,VWS V14.01,2013-07-07 14:29:00,
2013-07-07 09:34:00,85.4,77.0,29.89,ESE,113,6.0,10.0,76,0.00,,---,0.00,VWS V14.01,2013-07-07 14:34:00,
2013-07-07 09:39:00,85.3,76.5,29.89,SSE,150,4.0,5.0,75,0.00,,---,0.00,VWS V14.01,2013-07-07 14:39:00,
2013-07-07 09:44:00,85.5,76.3,29.89,ESE,121,7.0,13.0,74,0.00,,---,0.00,VWS V14.01,2013-07-07 14:44:00,
2013-07-07 09:49:00,85.3,76.1,29.89,SE,133,5.0,5.0,74,0.00,,---,0.00,VWS V14.01,2013-07-07 14:49:00,
2013-07-07 09:54:00,85.5,76.3,29.90,SE,137,6.0,9.0,74,0.00,,---,0.00,VWS V14.01,2013-07-07 14:54:00,
2013-07-07 09:59:00,85.7,76.1,29.90,ESE,115,4.0,10.0,73,0.00,,---,0.00,VWS V14.01,2013-07-07 14:59:00,
2013-07-07 10:04:00,86.3,76.6,29.90,SSE,163,7.0,13.0,73,0.00,,---,0.00,VWS V14.01,2013-07-07 15:04:00,
2013-07-07 10:09:00,87.2,77.1,29.90,ESE,117,4.0,5.0,72,0.00,,---,0.00,VWS V14.01,2013-07-07 15:09:00,
2013-07-07 10:14:00,87.2,76.7,29.90,SE,126,4.0,9.0,71,0.00,,---,0.00,VWS V14.01,2013-07-07 15:14:00,
2013-07-07 10:19:00,86.8,77.1,29.90,ESE,113,6.0,6.0,73,0.00,,---,0.00,VWS V14.01,2013-07-07 15:19:00,
2013-07-07 10:24:00,87.1,77.0,29.91,SSE,153,5.0,7.0,72,0.00,,---,0.00,VWS V14.01,2013-07-07 15:24:00,
2013-07-07 10:29:00,87.5,76.9,29.91,ESE,102,6.0,6.0,71,0.00,,---,0.00,VWS V14.01,2013-07-07 15:29:00,
2013-07-07 10:34:00,86.9,76.4,29.90,SE,140,4.0,10.0,71,0.00,,---,0.00,VWS V14.01,2013-07-07 15:34:00,
2013-07-07 10:39:00,87.2,77.1,29.91,SE,145,4.0,7.0,72,0.00,,---,0.00,VWS V14.01,2013-07-07 15:39:00,
2013-07-07 10:44:00,87.8,77.2,29.90,SSE,156,9.0,12.0,71,0.00,,---,0.00,VWS V14.01,2013-07-07 15:44:00,
2013-07-07 10:49:00,87.4,76.4,29.91,East,94,5.0,5.0,70,0.00,,---,0.00,VWS V14.01,2013-07-07 15:49:00,
2013-07-07 10:54:00,87.5,76.9,29.90,SSE,150,7.0,10.0,71,0.00,,---,0.00,VWS V14.01,2013-07-07 15:54:00,
2013-07-07 10:59:00,87.5,76.9,29.90,SE,126,11.0,11.0,71,0.00,,---,0.00,VWS V14.01,2013-07-07 15:59:00,
2013-07-07 11:04:00,87.7,76.3,29.90,East,101,6.0,7.0,69,0.00,,---,0.00,VWS V14.01,2013-07-07 16:04:00,
2013-07-07 11:09:00,88.0,77.0,29.90,SSE,149,4.0,11.0,70,0.00,,---,0.00,VWS V14.01,2013-07-07 16:09:00,
2013-07-07 11:14:00,88.1,77.5,29.90,SE,144,8.0,10.0,71,0.00,,---,0.00,VWS V14.01,2013-07-07 16:14:00,
2013-07-07 11:19:00,88.0,76.6,29.90,SE,126,5.0,10.0,69,0.00,,---,0.00,VWS V14.01,2013-07-07 16:19:00,
2013-07-07 11:24:00,88.1,77.5,29.90,East,100,6.0,7.0,71,0.00,,---,0.00,VWS V14.01,2013-07-07 16:24:00,
2013-07-07 11:29:00,88.6,78.0,29.90,ESE,120,4.0,5.0,71,0.00,,---,0.00,VWS V14.01,2013-07-07 16:29:00,
2013-07-07 11:34:00,88.3,77.3,29.90,East,101,3.0,6.0,70,0.00,,---,0.00,VWS V14.01,2013-07-07 16:34:00,
2013-07-07 11:39:00,88.0,76.6,29.90,SE,144,8.0,8.0,69,0.00,,---,0.00,VWS V14.01,2013-07-07 16:39:00,
2013-07-07 11:44:00,88.3,76.4,29.90,SE,140,8.0,11.0,68,0.00,,---,0.00,VWS V14.01,2013-07-07 16:44:00,
2013-07-07 11:49:00,88.6,76.2,29.90,SSE,148,5.0,10.0,67,0.00,,---,0.00,VWS V14.01,2013-07-07 16:49:00,
2013-07-07 11:54:00,88.8,76.0,29.90,SE,131,1.0,4.0,66,0.00,,---,0.00,VWS V14.01,2013-07-07 16:54:00,
2013-07-07 11:59:00,89.2,75.9,29.90,SE,126,11.0,14.0,65,0.00,,---,0.00,VWS V14.01,2013-07-07 16:59:00,
2013-07-07 12:04:00,89.1,76.3,29.90,ESE,104,6.0,12.0,66,0.00,,---,0.00,VWS V14.01,2013-07-07 17:04:00,
2013-07-07 12:09:00,88.6,75.8,29.90,SE,142,10.0,10.0,66,0.00,,---,0.00,VWS V14.01,2013-07-07 17:09:00,
2013-07-07 12:14:00,88.6,74.9,29.90,SE,125,6.0,7.0,64,0.00,,---,0.00,VWS V14.01,2013-07-07 17:14:00,
2013-07-07 12:19:00,88.6,74.9,29.90,SE,128,4.0,4.0,64,0.00,,---,0.00,VWS V14.01,2013-07-07 17:19:00,
2013-07-07 12:24:00,88.9,75.2,29.90,SSE,163,13.0,13.0,64,0.00,,---,0.00,VWS V14.01,2013-07-07 17:24:00,
2013-07-07 12:29:00,89.3,75.1,29.90,ESE,111,7.0,7.0,63,0.00,,---,0.00,VWS V14.01,2013-07-07 17:29:00,
2013-07-07 12:34:00,89.3,75.5,29.90,SSE,150,7.0,9.0,64,0.00,,---,0.00,VWS V14.01,2013-07-07 17:34:00,
2013-07-07 12:39:00,89.0,75.2,29.90,ESE,109,5.0,6.0,64,0.00,,---,0.00,VWS V14.01,2013-07-07 17:39:00,
2013-07-07 12:44:00,89.4,75.6,29.89,SE,145,6.0,6.0,64,0.00,,---,0.00,VWS V14.01,2013-07-07 17:44:00,
2013-07-07 12:49:00,89.6,75.8,29.89,SE,146,12.0,14.0,64,0.00,,---,0.00,VWS V14.01,2013-07-07 17:49:00,
2013-07-07 12:54:00,89.6,75.3,29.89,ESE,107,6.0,8.0,63,0.00,,---,0.00,VWS V14.01,2013-07-07 17:54:00,
2013-07-07 12:59:00,89.5,75.2,29.89,SE,144,15.0,15.0,63,0.00,,---,0.00,VWS V14.01,2013-07-07 17:59:00,
2013-07-07 13:04:00,89.6,75.3,29.89,ESE,109,9.0,10.0,63,0.00,,---,0.00,VWS V14.01,2013-07-07 18:04:00,
2013-07-07 13:09:00,89.3,74.6,29.89,SE,132,10.0,14.0,62,0.00,,---,0.00,VWS V14.01,2013-07-07 18:09:00,
2013-07-07 13:14:00,89.6,74.4,29.89,SE,132,6.0,13.0,61,0.00,,---,0.00,VWS V14.01,2013-07-07 18:14:00,
2013-07-07 13:19:00,89.8,73.1,29.89,SSE,167,9.0,12.0,58,0.00,,---,0.00,VWS V14.01,2013-07-07 18:19:00,
2013-07-07 13:24:00,90.5,73.7,29.89,SSE,163,5.0,12.0,58,0.00,,---,0.00,VWS V14.01,2013-07-07 18:24:00,
2013-07-07 13:29:00,90.9,73.6,29.89,ESE,118,13.0,13.0,57,0.00,,---,0.00,VWS V14.01,2013-07-07 18:29:00,
2013-07-07 13:34:00,90.6,74.3,29.89,SE,124,10.0,13.0,59,0.00,,---,0.00,VWS V14.01,2013-07-07 18:34:00,
2013-07-07 13:39:00,90.3,74.5,29.89,SSE,164,16.0,17.0,60,0.00,,---,0.00,VWS V14.01,2013-07-07 18:39:00,
2013-07-07 13:43:00,90.2,74.9,29.89,SE,136,15.0,15.0,61,0.00,,---,0.00,VWS V14.01,2013-07-07 18:43:00,
2013-07-07 13:48:00,90.3,74.5,29.89,South,169,13.0,13.0,60,0.00,,---,0.00,VWS V14.01,2013-07-07 18:48:00,
2013-07-07 13:53:00,89.9,74.7,29.89,ESE,118,13.0,13.0,61,0.00,,---,0.00,VWS V14.01,2013-07-07 18:53:00,
2013-07-07 13:58:00,89.8,74.6,29.89,SE,135,11.0,16.0,61,0.00,,---,0.00,VWS V14.01,2013-07-07 18:58:00,
2013-07-07 14:03:00,89.5,74.3,29.89,SE,137,17.0,17.0,61,0.00,,---,0.00,VWS V14.01,2013-07-07 19:03:00,
2013-07-07 14:08:00,89.0,74.3,29.89,ESE,119,2.0,17.0,62,0.00,,---,0.00,VWS V14.01,2013-07-07 19:08:00,
2013-07-07 14:13:00,89.0,74.3,29.89,ESE,120,16.0,20.0,62,0.00,,---,0.00,VWS V14.01,2013-07-07 19:13:00,
2013-07-07 14:18:00,88.9,74.7,29.89,SSE,159,9.0,17.0,63,0.00,,---,0.00,VWS V14.01,2013-07-07 19:18:00,
2013-07-07 14:23:00,88.6,75.3,29.89,SSE,163,11.0,18.0,65,0.00,,---,0.00,VWS V14.01,2013-07-07 19:23:00,
2013-07-07 14:28:00,88.6,75.8,29.89,SE,130,10.0,15.0,66,0.00,,---,0.00,VWS V14.01,2013-07-07 19:28:00,
2013-07-07 14:33:00,88.0,75.7,29.89,SE,146,11.0,13.0,67,0.00,,---,0.00,VWS V14.01,2013-07-07 19:33:00,
2013-07-07 14:38:00,87.6,75.3,29.89,SSE,155,10.0,20.0,67,0.00,,---,0.00,VWS V14.01,2013-07-07 19:38:00,
2013-07-07 14:43:00,87.8,76.4,29.88,SE,140,9.0,13.0,69,0.00,,---,0.00,VWS V14.01,2013-07-07 19:43:00,
2013-07-07 14:48:00,88.7,76.8,29.88,ESE,117,11.0,14.0,68,0.00,,---,0.00,VWS V14.01,2013-07-07 19:48:00,
2013-07-07 14:53:00,87.7,74.9,29.89,SE,130,14.0,19.0,66,0.00,,---,0.00,VWS V14.01,2013-07-07 19:53:00,
2013-07-07 14:58:00,88.2,74.5,29.89,SE,141,14.0,20.0,64,0.00,,---,0.00,VWS V14.01,2013-07-07 19:58:00,
2013-07-07 15:03:00,88.4,75.1,29.89,ESE,123,12.0,17.0,65,0.00,,---,0.00,VWS V14.01,2013-07-07 20:03:00,
2013-07-07 15:08:00,88.3,75.1,29.89,ESE,118,14.0,15.0,65,0.00,,---,0.00,VWS V14.01,2013-07-07 20:08:00,
2013-07-07 15:13:00,88.0,74.8,29.89,SE,137,6.0,15.0,65,0.00,,---,0.00,VWS V14.01,2013-07-07 20:13:00,
2013-07-07 15:18:00,88.8,74.6,29.89,SE,128,11.0,17.0,63,0.00,,---,0.00,VWS V14.01,2013-07-07 20:18:00,
2013-07-07 15:23:00,89.0,74.3,29.89,SSE,163,17.0,19.0,62,0.00,,---,0.00,VWS V14.01,2013-07-07 20:23:00,
2013-07-07 15:28:00,88.8,74.6,29.89,ESE,117,9.0,14.0,63,0.00,,---,0.00,VWS V14.01,2013-07-07 20:28:00,
2013-07-07 15:33:00,88.6,74.9,29.89,ESE,116,11.0,12.0,64,0.00,,---,0.00,VWS V14.01,2013-07-07 20:33:00,
2013-07-07 15:38:00,88.2,75.4,29.89,ESE,123,11.0,19.0,66,0.00,,---,0.00,VWS V14.01,2013-07-07 20:38:00,
2013-07-07 15:43:00,88.2,75.4,29.89,ESE,121,12.0,20.0,66,0.00,,---,0.00,VWS V14.01,2013-07-07 20:43:00,
2013-07-07 15:48:00,88.2,75.9,29.89,SE,142,21.0,21.0,67,0.00,,---,0.00,VWS V14.01,2013-07-07 20:48:00,
2013-07-07 15:53:00,88.0,75.7,29.88,ESE,122,16.0,16.0,67,0.00,,---,0.00,VWS V14.01,2013-07-07 20:53:00,
2013-07-07 15:58:00,88.3,76.0,29.88,ESE,117,10.0,18.0,67,0.00,,---,0.00,VWS V14.01,2013-07-07 20:58:00,
2013-07-07 16:03:00,87.9,76.0,29.87,ESE,109,18.0,22.0,68,0.00,,---,0.00,VWS V14.01,2013-07-07 21:03:00,
2013-07-07 16:08:00,87.7,76.3,29.87,SSE,155,19.0,19.0,69,0.00,,---,0.00,VWS V14.01,2013-07-07 21:08:00,
2013-07-07 16:13:00,87.7,76.3,29.87,SSE,162,12.0,22.0,69,0.00,,---,0.00,VWS V14.01,2013-07-07 21:13:00,
2013-07-07 16:18:00,87.2,76.7,29.87,East,94,11.0,18.0,71,0.00,,---,0.00,VWS V14.01,2013-07-07 21:18:00,
2013-07-07 16:23:00,87.3,76.3,29.87,SSE,163,23.0,23.0,70,0.00,,---,0.00,VWS V14.01,2013-07-07 21:23:00,
2013-07-07 16:28:00,87.5,76.1,29.87,SSE,151,17.0,18.0,69,0.00,,---,0.00,VWS V14.01,2013-07-07 21:28:00,
2013-07-07 16:33:00,87.7,75.8,29.87,ESE,118,20.0,20.0,68,0.00,,---,0.00,VWS V14.01,2013-07-07 21:33:00,
2013-07-07 16:38:00,87.2,75.8,29.87,SSE,157,15.0,16.0,69,0.00,,---,0.00,VWS V14.01,2013-07-07 21:38:00,
2013-07-07 16:43:00,87.2,75.8,29.87,SSE,152,12.0,19.0,69,0.00,,---,0.00,VWS V14.01,2013-07-07 21:43:00,
2013-07-07 16:48:00,87.4,76.0,29.87,South,180,12.0,20.0,69,0.00,,---,0.00,VWS V14.01,2013-07-07 21:48:00,
2013-07-07 16:53:00,86.9,76.4,29.87,SSE,161,16.0,17.0,71,0.00,,---,0.00,VWS V14.01,2013-07-07 21:53:00,
2013-07-07 16:58:00,86.8,76.3,29.87,SSE,159,14.0,16.0,71,0.00,,---,0.00,VWS V14.01,2013-07-07 21:58:00,
2013-07-07 17:03:00,86.2,76.1,29.87,South,169,16.0,17.0,72,0.00,,---,0.00,VWS V14.01,2013-07-07 22:03:00,
2013-07-07 17:08:00,86.1,76.0,29.86,South,172,4.0,16.0,72,0.00,,---,0.00,VWS V14.01,2013-07-07 22:08:00,
2013-07-07 17:13:00,85.8,76.2,29.86,SSE,154,11.0,18.0,73,0.00,,---,0.00,VWS V14.01,2013-07-07 22:13:00,
2013-07-07 17:18:00,85.3,76.1,29.87,South,173,11.0,16.0,74,0.00,,---,0.00,VWS V14.01,2013-07-07 22:18:00,
2013-07-07 17:23:00,85.0,75.8,29.87,SSE,161,9.0,14.0,74,0.00,,---,0.00,VWS V14.01,2013-07-07 22:23:00,
2013-07-07 17:28:00,84.7,74.7,29.86,SSE,156,13.0,14.0,72,0.00,,---,0.00,VWS V14.01,2013-07-07 22:28:00,
2013-07-07 17:33:00,85.0,75.0,29.86,SSE,155,11.0,12.0,72,0.00,,---,0.00,VWS V14.01,2013-07-07 22:33:00,
2013-07-07 17:38:00,85.0,74.1,29.87,SSE,155,12.0,16.0,70,0.00,,---,0.00,VWS V14.01,2013-07-07 22:38:00,
2013-07-07 17:43:00,85.2,74.7,29.87,SE,136,11.0,14.0,71,0.00,,---,0.00,VWS V14.01,2013-07-07 22:43:00,
2013-07-07 17:48:00,84.9,74.9,29.87,SE,130,14.0,14.0,72,0.00,,---,0.00,VWS V14.01,2013-07-07 22:48:00,
2013-07-07 17:53:00,84.4,75.2,29.86,ESE,119,6.0,13.0,74,0.00,,---,0.00,VWS V14.01,2013-07-07 22:53:00,
2013-07-07 17:58:00,84.0,75.2,29.86,SE,127,7.0,13.0,75,0.00,,---,0.00,VWS V14.01,2013-07-07 22:58:00,
2013-07-07 18:03:00,83.8,74.6,29.86,SSE,165,7.0,16.0,74,0.00,,---,0.00,VWS V14.01,2013-07-07 23:03:00,
2013-07-07 18:08:00,83.8,74.6,29.86,SE,130,11.0,11.0,74,0.00,,---,0.00,VWS V14.01,2013-07-07 23:08:00,
2013-07-07 18:13:00,84.0,74.8,29.86,SSE,166,12.0,12.0,74,0.00,,---,0.00,VWS V14.01,2013-07-07 23:13:00,
2013-07-07 18:18:00,84.0,74.4,29.86,SE,126,6.0,10.0,73,0.00,,---,0.00,VWS V14.01,2013-07-07 23:18:00,
2013-07-07 18:23:00,83.8,74.2,29.86,SE,134,11.0,13.0,73,0.00,,---,0.00,VWS V14.01,2013-07-07 23:23:00,
2013-07-07 18:28:00,83.7,74.1,29.87,SSE,163,11.0,13.0,73,0.00,,---,0.00,VWS V14.01,2013-07-07 23:28:00,
2013-07-07 18:33:00,83.9,74.3,29.87,SE,133,8.0,15.0,73,0.00,,---,0.00,VWS V14.01,2013-07-07 23:33:00,
2013-07-07 18:38:00,83.6,73.6,29.86,SE,136,11.0,12.0,72,0.00,,---,0.00,VWS V14.01,2013-07-07 23:38:00,
2013-07-07 18:43:00,83.4,73.8,29.87,SSE,168,8.0,11.0,73,0.00,,---,0.00,VWS V14.01,2013-07-07 23:43:00,
2013-07-07 18:48:00,83.2,74.1,29.87,SE,145,12.0,16.0,74,0.00,,---,0.00,VWS V14.01,2013-07-07 23:48:00,
2013-07-07 18:53:00,83.2,74.1,29.87,SE,134,16.0,16.0,74,0.00,,---,0.00,VWS V14.01,2013-07-07 23:53:00,
2013-07-07 18:58:00,83.0,73.9,29.87,SSE,160,9.0,12.0,74,0.00,,---,0.00,VWS V14.01,2013-07-07 23:58:00,
2013-07-07 19:03:00,82.9,73.8,29.87,SE,145,7.0,9.0,74,0.00,,---,0.00,VWS V14.01,2013-07-08 00:03:00,
2013-07-07 19:08:00,82.7,74.0,29.86,SSE,147,4.0,6.0,75,0.00,,---,0.00,VWS V14.01,2013-07-08 00:08:00,
2013-07-07 19:13:00,82.7,74.0,29.86,ESE,122,6.0,9.0,75,0.00,,---,0.00,VWS V14.01,2013-07-08 00:13:00,
2013-07-07 19:18:00,82.4,72.5,29.87,ESE,115,7.0,7.0,72,0.00,,---,0.00,VWS V14.01,2013-07-08 00:18:00,
2013-07-07 19:23:00,82.2,72.3,29.87,SSW,196,9.0,11.0,72,0.00,,---,0.00,VWS V14.01,2013-07-08 00:23:00,
2013-07-07 19:28:00,82.2,72.3,29.87,SE,144,10.0,10.0,72,0.00,,---,0.00,VWS V14.01,2013-07-08 00:28:00,
2013-07-07 19:33:00,82.1,72.6,29.87,SE,138,10.0,10.0,73,0.00,,---,0.00,VWS V14.01,2013-07-08 00:33:00,
2013-07-07 19:38:00,82.0,72.5,29.87,ESE,109,6.0,6.0,73,0.00,,---,0.00,VWS V14.01,2013-07-08 00:38:00,
2013-07-07 19:43:00,81.9,72.0,29.87,SSE,157,6.0,11.0,72,0.00,,---,0.00,VWS V14.01,2013-07-08 00:43:00,
2013-07-07 19:48:00,81.8,71.9,29.87,ESE,113,5.0,7.0,72,0.00,,---,0.00,VWS V14.01,2013-07-08 00:48:00,
2013-07-07 19:53:00,81.8,72.3,29.87,South,171,11.0,12.0,73,0.00,,---,0.00,VWS V14.01,2013-07-08 00:53:00,
2013-07-07 19:58:00,81.7,72.2,29.88,SSE,164,9.0,9.0,73,0.00,,---,0.00,VWS V14.01,2013-07-08 00:58:00,
2013-07-07 20:02:00,81.6,72.5,29.88,SE,144,11.0,11.0,74,0.00,,---,0.00,VWS V14.01,2013-07-08 01:02:00,
2013-07-07 20:07:00,81.5,72.8,29.88,SSE,161,4.0,6.0,75,0.00,,---,0.00,VWS V14.01,2013-07-08 01:07:00,
2013-07-07 20:08:00,81.5,72.8,29.88,SSE,161,4.0,6.0,75,0.00,,---,0.00,VWS V14.01,2013-07-08 01:08:00,
2013-07-07 20:13:00,81.5,72.8,29.88,SE,144,1.0,2.0,75,0.00,,---,0.00,VWS V14.01,2013-07-08 01:13:00,
2013-07-07 20:18:00,81.4,73.1,29.88,SSE,168,10.0,10.0,76,0.00,,---,0.00,VWS V14.01,2013-07-08 01:18:00,
2013-07-07 20:23:00,81.4,73.1,29.88,ESE,123,2.0,5.0,76,0.00,,---,0.00,VWS V14.01,2013-07-08 01:23:00,
2013-07-07 20:28:00,81.4,73.5,29.88,SSE,147,3.0,5.0,77,0.00,,---,0.00,VWS V14.01,2013-07-08 01:28:00,
2013-07-07 20:32:00,81.3,73.8,29.89,SE,140,5.0,5.0,78,0.00,,---,0.00,VWS V14.01,2013-07-08 01:32:00,
2013-07-07 20:37:00,81.2,73.7,29.88,SSE,155,3.0,3.0,78,0.00,,---,0.00,VWS V14.01,2013-07-08 01:37:00,
2013-07-07 20:42:00,81.1,74.0,29.89,SSE,163,7.0,7.0,79,0.00,,---,0.00,VWS V14.01,2013-07-08 01:42:00,
2013-07-07 20:47:00,81.0,74.2,29.89,SE,140,4.0,11.0,80,0.00,,---,0.00,VWS V14.01,2013-07-08 01:47:00,
2013-07-07 20:52:00,80.9,74.2,29.89,SE,145,4.0,7.0,80,0.00,,---,0.00,VWS V14.01,2013-07-08 01:52:00,
2013-07-07 20:57:00,80.7,74.0,29.89,SSE,164,7.0,9.0,80,0.00,,---,0.00,VWS V14.01,2013-07-08 01:57:00,
2013-07-07 21:02:00,80.7,74.0,29.89,SSE,153,3.0,6.0,80,0.00,,---,0.00,VWS V14.01,2013-07-08 02:02:00,
2013-07-07 21:07:00,80.6,74.2,29.89,SE,140,6.0,10.0,81,0.00,,---,0.00,VWS V14.01,2013-07-08 02:07:00,
2013-07-07 21:12:00,80.5,74.1,29.89,SE,144,6.0,6.0,81,0.00,,---,0.00,VWS V14.01,2013-07-08 02:12:00,
2013-07-07 21:17:00,80.5,74.5,29.89,SE,144,3.0,5.0,82,0.00,,---,0.00,VWS V14.01,2013-07-08 02:17:00,
2013-07-07 21:22:00,80.5,74.5,29.89,SE,133,4.0,8.0,82,0.00,,---,0.00,VWS V14.01,2013-07-08 02:22:00,
2013-07-07 21:27:00,80.4,74.8,29.90,SE,133,2.0,4.0,83,0.00,,---,0.00,VWS V14.01,2013-07-08 02:27:00,
2013-07-07 21:32:00,80.4,74.8,29.90,SE,137,5.0,5.0,83,0.00,,---,0.00,VWS V14.01,2013-07-08 02:32:00,
2013-07-07 21:37:00,80.4,74.8,29.90,SE,145,4.0,4.0,83,0.00,,---,0.00,VWS V14.01,2013-07-08 02:37:00,
2013-07-07 21:42:00,80.3,74.7,29.90,SE,141,2.0,6.0,83,0.00,,---,0.00,VWS V14.01,2013-07-08 02:42:00,
2013-07-07 21:47:00,80.3,74.7,29.91,SSE,150,5.0,6.0,83,0.00,,---,0.00,VWS V14.01,2013-07-08 02:47:00,
2013-07-07 21:52:00,80.2,74.6,29.91,SSE,149,6.0,8.0,83,0.00,,---,0.00,VWS V14.01,2013-07-08 02:52:00,
2013-07-07 21:57:00,80.1,74.5,29.91,SE,138,2.0,4.0,83,0.00,,---,0.00,VWS V14.01,2013-07-08 02:57:00,
2013-07-07 22:02:00,80.0,74.4,29.91,SSE,159,4.0,5.0,83,0.00,,---,0.00,VWS V14.01,2013-07-08 03:02:00,
2013-07-07 22:07:00,79.9,74.6,29.91,SSE,157,7.0,7.0,84,0.00,,---,0.00,VWS V14.01,2013-07-08 03:07:00,
2013-07-07 22:12:00,79.8,74.5,29.91,SE,138,3.0,5.0,84,0.00,,---,0.00,VWS V14.01,2013-07-08 03:12:00,
2013-07-07 22:17:00,79.8,74.5,29.91,SSE,147,7.0,7.0,84,0.00,,---,0.00,VWS V14.01,2013-07-08 03:17:00,
2013-07-07 22:22:00,79.8,74.5,29.92,SSE,153,5.0,7.0,84,0.00,,---,0.00,VWS V14.01,2013-07-08 03:22:00,
2013-07-07 22:27:00,79.8,74.5,29.92,SSE,168,3.0,5.0,84,0.00,,---,0.00,VWS V14.01,2013-07-08 03:27:00,
2013-07-07 22:32:00,79.8,74.5,29.92,SE,138,2.0,5.0,84,0.00,,---,0.00,VWS V14.01,2013-07-08 03:32:00,
2013-07-07 22:37:00,79.8,74.5,29.92,SE,142,7.0,7.0,84,0.00,,---,0.00,VWS V14.01,2013-07-08 03:37:00,
2013-07-07 22:42:00,79.8,74.9,29.92,SE,140,6.0,7.0,85,0.00,,---,0.00,VWS V14.01,2013-07-08 03:42:00,
2013-07-07 22:47:00,79.8,74.9,29.92,SE,142,9.0,11.0,85,0.00,,---,0.00,VWS V14.01,2013-07-08 03:47:00,
2013-07-07 22:52:00,79.9,75.0,29.92,ESE,115,3.0,4.0,85,0.00,,---,0.00,VWS V14.01,2013-07-08 03:52:00,
2013-07-07 22:57:00,80.0,75.1,29.93,SE,142,7.0,7.0,85,0.00,,---,0.00,VWS V14.01,2013-07-08 03:57:00,
2013-07-07 23:01:00,80.0,75.4,29.93,SE,140,6.0,6.0,86,0.00,,---,0.00,VWS V14.01,2013-07-08 04:01:00,
2013-07-07 23:06:00,80.1,75.5,29.93,ESE,123,7.0,11.0,86,0.00,,---,0.00,VWS V14.01,2013-07-08 04:06:00,
2013-07-07 23:11:00,80.2,75.6,29.93,SE,132,9.0,9.0,86,0.00,,---,0.00,VWS V14.01,2013-07-08 04:11:00,
2013-07-07 23:16:00,80.3,75.7,29.93,SSE,155,10.0,11.0,86,0.00,,---,0.00,VWS V14.01,2013-07-08 04:16:00,
2013-07-07 23:21:00,80.3,75.7,29.93,SSE,149,6.0,11.0,86,0.00,,---,0.00,VWS V14.01,2013-07-08 04:21:00,
2013-07-07 23:26:00,80.4,75.8,29.93,South,169,11.0,11.0,86,0.00,,---,0.00,VWS V14.01,2013-07-08 04:26:00,
2013-07-07 23:31:00,80.5,75.9,29.93,SSE,159,5.0,6.0,86,0.00,,---,0.00,VWS V14.01,2013-07-08 04:31:00,
2013-07-07 23:36:00,80.5,75.9,29.94,SSE,159,11.0,11.0,86,0.00,,---,0.00,VWS V14.01,2013-07-08 04:36:00,
2013-07-07 23:41:00,80.5,75.9,29.94,SE,131,4.0,10.0,86,0.00,,---,0.00,VWS V14.01,2013-07-08 04:41:00,
2013-07-07 23:46:00,80.5,75.9,29.94,SSE,155,11.0,11.0,86,0.00,,---,0.00,VWS V14.01,2013-07-08 04:46:00,
2013-07-07 23:51:00,80.5,75.9,29.94,SSE,149,9.0,11.0,86,0.00,,---,0.00,VWS V14.01,2013-07-08 04:51:00,
2013-07-07 23:56:00,80.5,75.9,29.94,SSE,149,7.0,7.0,86,0.00,,---,0.00,VWS V14.01,2013-07-08 04:56:00,